Time;durP1;ratioP1;P1;durP2;ratioP2;P2;SDS_P1;SDS_P2;PMS_P1;PMS_P2;Temp;Humidity;BMP_temperature;BMP_pressure;BME280_temperature;BME280_humidity;BME280_pressure;Samples;Min_cycle;Max_cycle;Signal;HPM_P1;HPM_P2
2023/01/06 00:02:15;;;;;;;14.10;7.95;;;;;;;13.43;53.01;93917.50;4930987;29;20028;-86
2023/01/06 00:04:41;;;;;;;16.33;8.27;;;;;;;13.42;53.14;93915.28;4962132;28;20058;-85
2023/01/06 00:07:06;;;;;;;13.80;7.68;;;;;;;13.42;52.88;93913.31;4930269;28;20132;-85
2023/01/06 00:09:33;;;;;;;16.38;7.72;;;;;;;13.43;53.18;93912.09;4942941;28;20048;-85
2023/01/06 00:11:58;;;;;;;15.98;8.48;;;;;;;13.40;53.01;93913.03;4946377;28;20040;-84
2023/01/06 00:14:24;;;;;;;13.85;7.75;;;;;;;13.41;53.19;93914.53;4931043;28;20043;-83
2023/01/06 00:16:49;;;;;;;12.23;7.50;;;;;;;13.42;52.96;93910.59;4943859;28;20055;-84
2023/01/06 00:19:15;;;;;;;15.57;7.97;;;;;;;13.42;52.98;93915.28;4942276;28;20065;-83
2023/01/06 00:21:41;;;;;;;15.60;7.78;;;;;;;13.42;53.23;93915.28;4959349;28;20036;-84
2023/01/06 00:24:08;;;;;;;12.75;7.40;;;;;;;13.40;52.88;93912.28;4958433;28;20054;-83
2023/01/06 00:26:33;;;;;;;14.30;8.18;;;;;;;13.43;53.09;93914.06;4942663;28;20040;-91
2023/01/06 00:28:59;;;;;;;12.50;7.63;;;;;;;13.38;52.90;93913.50;4962505;28;20040;-86
2023/01/06 00:31:24;;;;;;;16.38;8.15;;;;;;;13.41;53.27;93919.97;4976032;28;20039;-84
2023/01/06 00:33:50;;;;;;;14.48;7.57;;;;;;;13.40;52.81;93912.28;4963117;28;20046;-85
2023/01/06 00:36:15;;;;;;;15.38;7.40;;;;;;;13.40;53.19;93910.31;4961905;28;20040;-85
2023/01/06 00:38:41;;;;;;;11.82;7.65;;;;;;;13.40;52.79;93910.31;4938499;28;20446;-92
2023/01/06 00:43:54;;;;;;;12.70;8.10;;;;;;;13.38;53.22;93916.22;4959265;28;20134;-83
2023/01/06 00:46:20;;;;;;;16.67;6.97;;;;;;;13.40;53.09;93926.63;4928441;28;20044;-84
2023/01/06 00:48:45;;;;;;;12.30;7.72;;;;;;;13.42;53.28;93931.59;4959239;28;20040;-83
2023/01/06 00:51:11;;;;;;;13.77;8.13;;;;;;;13.40;53.01;93921.19;4941777;28;20052;-84
2023/01/06 00:53:36;;;;;;;13.50;7.25;;;;;;;13.38;52.91;93924.38;4962823;28;20055;-88
2023/01/06 00:56:01;;;;;;;14.05;7.60;;;;;;;13.38;53.00;93916.22;4964086;28;20110;-83
2023/01/06 00:58:30;;;;;;;11.52;7.57;;;;;;;13.41;53.05;93924.66;4947670;28;20047;-85
2023/01/06 01:00:56;;;;;;;17.20;8.10;;;;;;;13.42;52.80;93921.47;4964519;28;20130;-86
2023/01/06 01:03:21;;;;;;;14.82;9.00;;;;;;;13.40;53.02;93929.34;4948663;28;20039;-83
2023/01/06 01:05:47;;;;;;;15.95;7.97;;;;;;;13.42;52.80;93929.63;4964515;28;20614;-84
2023/01/06 01:08:12;;;;;;;13.80;7.68;;;;;;;13.43;52.97;93933.06;4979949;28;20118;-84
2023/01/06 01:10:38;;;;;;;14.77;7.63;;;;;;;13.42;52.88;93928.88;4948586;28;20035;-84
2023/01/06 01:13:03;;;;;;;12.50;7.10;;;;;;;13.41;52.76;93936.25;4963982;28;20122;-89
2023/01/06 01:15:29;;;;;;;16.75;8.30;;;;;;;13.41;53.27;93933.56;4961233;28;20106;-84
2023/01/06 01:17:55;;;;;;;12.23;7.45;;;;;;;13.42;52.94;93934.31;4961249;28;20085;-84
2023/01/06 01:20:20;;;;;;;11.85;7.35;;;;;;;13.44;53.13;93937.28;4962127;28;20047;-83
2023/01/06 01:22:45;;;;;;;12.95;7.45;;;;;;;13.43;52.86;93936.53;4949092;28;20039;-84
2023/01/06 01:25:11;;;;;;;14.38;7.80;;;;;;;13.41;53.34;93938.22;4963613;28;20066;-84
2023/01/06 01:27:36;;;;;;;11.93;6.93;;;;;;;13.42;52.93;93934.31;4943753;28;20434;-86
2023/01/06 01:30:02;;;;;;;15.98;7.78;;;;;;;13.40;52.75;93929.34;4980353;28;20383;-91
2023/01/06 01:32:27;;;;;;;11.10;7.00;;;;;;;13.41;53.04;93921.94;4964281;28;20465;-84
2023/01/06 01:34:53;;;;;;;14.00;7.45;;;;;;;13.43;52.87;93922.94;4964253;28;20035;-84
2023/01/06 01:37:18;;;;;;;14.88;7.60;;;;;;;13.39;53.24;93922.41;4947686;28;20062;-84
2023/01/06 01:39:44;;;;;;;17.30;7.28;;;;;;;13.41;52.74;93917.25;4980994;28;20047;-84
2023/01/06 01:42:14;;;;;;;12.77;8.18;;;;;;;13.39;53.03;93916.97;4964050;28;20068;-84
2023/01/06 01:44:54;;;;;;;11.50;7.27;;;;;;;13.42;52.89;93904.44;4960490;28;20063;-83
2023/01/06 01:47:31;;;;;;;14.98;8.15;;;;;;;13.40;52.80;93907.59;4961556;28;20312;-84
2023/01/06 01:50:00;;;;;;;14.60;6.93;;;;;;;13.37;52.75;93909.28;4932162;28;20498;-84
2023/01/06 01:52:25;;;;;;;14.75;7.40;;;;;;;13.39;53.11;93897.97;4964134;28;20051;-84
2023/01/06 01:54:51;;;;;;;13.30;7.38;;;;;;;13.40;52.91;93904.16;4958890;28;20454;-84
2023/01/06 01:57:22;;;;;;;11.05;7.13;;;;;;;13.39;52.83;93895.25;4963638;28;20046;-88
2023/01/06 01:59:47;;;;;;;12.75;6.85;;;;;;;13.38;52.96;93902.66;4997219;28;20110;-88
2023/01/06 02:02:14;;;;;;;13.90;7.60;;;;;;;13.41;52.90;93905.66;4964626;28;21007;-86
2023/01/06 02:04:41;;;;;;;15.68;7.45;;;;;;;13.44;52.86;93910.88;4997174;28;20031;-87
2023/01/06 02:07:06;;;;;;;16.02;7.35;;;;;;;13.37;52.89;93908.53;4979485;28;20506;-86
2023/01/06 02:09:50;;;;;;;14.30;7.03;;;;;;;13.39;52.95;93914.25;4952906;28;20051;-94
2023/01/06 02:12:15;;;;;;;11.27;7.20;;;;;;;13.38;52.71;93901.88;4978251;28;20047;-93
2023/01/06 02:14:41;;;;;;;12.98;7.72;;;;;;;13.40;52.81;93901.44;4948798;28;20043;-84
2023/01/06 02:17:27;;;;;;;14.65;7.43;;;;;;;13.41;53.27;93898.25;4963519;28;20042;-84
2023/01/06 02:20:01;;;;;;;11.75;6.63;;;;;;;13.40;52.96;93901.44;4977109;28;20080;-84
2023/01/06 02:23:00;;;;;;;12.73;6.95;;;;;;;13.40;53.03;93901.44;4949075;28;20054;-86
2023/01/06 02:25:32;;;;;;;14.65;7.43;;;;;;;13.37;52.94;93892.25;4952829;28;20494;-92
2023/01/06 02:28:18;;;;;;;14.05;6.68;;;;;;;13.38;52.93;93899.19;4952370;28;20042;-83
2023/01/06 02:31:17;;;;;;;12.25;7.32;;;;;;;13.40;53.05;93901.44;4996780;28;20031;-83
2023/01/06 02:33:49;;;;;;;13.80;7.75;;;;;;;13.37;52.94;93897.69;4983283;28;20047;-84
2023/01/06 02:36:27;;;;;;;13.88;7.25;;;;;;;13.42;52.91;93899.00;4952198;28;20071;-83
2023/01/06 02:38:52;;;;;;;12.85;7.20;;;;;;;13.40;52.85;93890.56;4983886;28;20039;-85
2023/01/06 02:41:39;;;;;;;10.80;6.85;;;;;;;13.39;52.72;93884.38;4951507;28;20094;-85
2023/01/06 02:44:25;;;;;;;13.68;7.07;;;;;;;13.39;53.10;93889.81;4999678;28;20040;-84
2023/01/06 02:47:09;;;;;;;12.05;6.88;;;;;;;13.36;53.08;93891.50;4982325;28;20118;-84
2023/01/06 02:49:45;;;;;;;10.98;6.90;;;;;;;13.37;53.22;93894.97;4964608;28;20043;-84
2023/01/06 02:52:28;;;;;;;12.88;7.00;;;;;;;13.38;52.70;93875.50;4979523;28;20144;-84
2023/01/06 02:54:58;;;;;;;10.27;7.07;;;;;;;13.36;52.78;93890.75;4986157;28;20063;-84
2023/01/06 02:57:48;;;;;;;13.05;7.07;;;;;;;13.40;53.12;93875.03;4957495;28;20031;-83
2023/01/06 03:00:20;;;;;;;13.02;7.35;;;;;;;13.34;52.84;93872.19;4953983;28;20497;-84
2023/01/06 03:02:49;;;;;;;12.20;7.57;;;;;;;13.34;53.28;93868.75;5001941;28;20070;-91
2023/01/06 03:05:15;;;;;;;11.85;7.25;;;;;;;13.33;53.11;93872.66;5002120;28;20085;-84
2023/01/06 03:07:41;;;;;;;11.25;6.85;;;;;;;13.33;53.03;93867.22;4986529;28;20043;-84
2023/01/06 03:10:07;;;;;;;11.00;7.03;;;;;;;13.35;52.88;93868.28;4978097;28;20133;-84
2023/01/06 03:12:40;;;;;;;12.48;6.90;;;;;;;13.35;53.16;93864.81;5002464;28;20118;-84
2023/01/06 03:15:06;;;;;;;13.43;7.65;;;;;;;13.37;52.90;93860.41;4969233;28;20038;-89
2023/01/06 03:17:32;;;;;;;13.57;6.78;;;;;;;13.39;52.69;93868.09;4953494;28;20081;-84
2023/01/06 03:19:57;;;;;;;11.80;6.70;;;;;;;13.40;52.59;93866.13;4976553;28;20038;-84
2023/01/06 03:22:23;;;;;;;11.70;7.30;;;;;;;13.38;52.74;93858.44;4969445;28;20035;-84
2023/01/06 03:24:48;;;;;;;14.18;7.15;;;;;;;13.37;53.04;93860.41;4966337;28;20054;-84
2023/01/06 03:27:15;;;;;;;11.68;6.70;;;;;;;13.37;52.86;93863.13;4981591;28;20118;-84
2023/01/06 03:29:41;;;;;;;15.13;7.00;;;;;;;13.38;52.90;93844.88;4969113;28;20035;-84
2023/01/06 03:32:22;;;;;;;11.02;6.78;;;;;;;13.39;52.98;93857.22;4969284;28;20030;-85
2023/01/06 03:34:47;;;;;;;;;;;;;;;13.45;52.73;93857.31;4984402;28;20058;-84
2023/01/06 03:37:16;;;;;;;10.00;6.50;;;;;;;13.41;52.96;93846.66;4971024;28;19957;-84
2023/01/06 03:40:00;;;;;;;11.65;6.95;;;;;;;13.40;52.97;93849.84;5001392;28;20065;-84
2023/01/06 03:45:39;;;;;;;13.95;6.57;;;;;;;13.41;52.77;93838.50;4982556;28;20050;-89
2023/01/06 03:48:09;;;;;;;14.98;7.00;;;;;;;13.35;53.07;93843.84;4984977;28;20779;-84
2023/01/06 03:50:43;;;;;;;13.02;7.25;;;;;;;13.37;53.19;93846.84;4965830;28;20121;-84
2023/01/06 03:53:22;;;;;;;10.02;6.60;;;;;;;13.36;52.92;93842.63;5001189;28;20039;-84
2023/01/06 03:55:52;;;;;;;11.55;6.05;;;;;;;13.36;53.09;93841.88;5001804;28;20464;-84
2023/01/06 03:58:18;;;;;;;11.45;6.40;;;;;;;13.38;53.05;93839.44;4951977;28;20053;-84
2023/01/06 04:00:43;;;;;;;10.20;6.30;;;;;;;13.35;52.80;93843.84;4969313;28;20043;-84
2023/01/06 04:03:12;;;;;;;10.43;6.50;;;;;;;13.35;53.06;93846.56;4952796;28;20031;-84
2023/01/06 04:05:37;;;;;;;13.18;6.57;;;;;;;13.40;52.69;93839.72;5002377;28;20039;-85
2023/01/06 04:08:03;;;;;;;12.93;6.47;;;;;;;13.39;52.81;93830.06;4969615;28;20386;-84
2023/01/06 04:10:29;;;;;;;8.98;6.53;;;;;;;13.35;52.98;93832.97;4976189;28;20058;-89
2023/01/06 04:12:54;;;;;;;13.95;7.00;;;;;;;13.36;53.08;93831.00;4969327;28;20053;-84
2023/01/06 04:15:21;;;;;;;12.27;6.88;;;;;;;13.35;52.78;93826.78;4996370;28;20057;-85
2023/01/06 04:17:47;;;;;;;11.35;6.88;;;;;;;13.36;53.04;93834.47;5000640;28;20402;-84
2023/01/06 04:20:17;;;;;;;11.18;6.18;;;;;;;13.36;53.04;93828.28;4967876;28;20041;-84
2023/01/06 04:22:43;;;;;;;9.23;6.28;;;;;;;13.35;52.96;93822.13;5000859;28;20552;-83
2023/01/06 04:25:08;;;;;;;11.55;6.75;;;;;;;13.38;52.79;93829.31;4984144;28;20035;-84
2023/01/06 04:27:34;;;;;;;12.75;6.25;;;;;;;13.42;52.97;93836.53;4968037;28;20042;-85
2023/01/06 04:30:00;;;;;;;11.38;6.60;;;;;;;13.41;52.59;93835.03;4968157;28;20031;-84
2023/01/06 04:32:26;;;;;;;8.77;6.28;;;;;;;13.36;52.72;93842.63;4967787;28;20038;-86
2023/01/06 04:34:51;;;;;;;10.23;6.20;;;;;;;13.36;52.79;93839.91;4984364;28;20038;-84
2023/01/06 04:37:18;;;;;;;13.77;7.13;;;;;;;13.36;52.73;93842.63;4984736;28;20043;-90
2023/01/06 04:39:44;;;;;;;12.60;6.38;;;;;;;13.38;53.05;93845.63;4983900;28;20038;-84
2023/01/06 04:42:09;;;;;;;13.35;6.75;;;;;;;13.38;52.72;93850.31;4968061;28;20034;-84
2023/01/06 04:44:34;;;;;;;10.65;6.68;;;;;;;13.36;52.95;93844.59;4952304;28;20045;-84
2023/01/06 04:47:00;;;;;;;11.98;6.43;;;;;;;13.35;52.73;93837.66;4950998;28;20054;-84
2023/01/06 04:49:25;;;;;;;10.13;6.13;;;;;;;13.36;53.19;93839.91;4983267;28;20046;-90
2023/01/06 04:51:51;;;;;;;12.63;7.85;;;;;;;13.36;53.15;93844.59;4984963;28;20391;-84
2023/01/06 04:54:16;;;;;;;16.05;7.18;;;;;;;13.38;53.08;93836.72;4951518;28;20046;-85
2023/01/06 04:56:42;;;;;;;11.85;7.00;;;;;;;13.38;52.72;93842.91;4952171;28;20396;-84
2023/01/06 04:59:07;;;;;;;10.45;6.38;;;;;;;13.37;52.65;93846.84;4978010;28;20065;-85
2023/01/06 05:01:33;;;;;;;11.85;6.28;;;;;;;13.37;52.78;93843.38;4983704;28;20039;-84
2023/01/06 05:03:58;;;;;;;12.65;6.60;;;;;;;13.38;52.82;93842.91;4984471;28;20039;-84
2023/01/06 05:06:24;;;;;;;13.07;6.50;;;;;;;13.39;52.75;93843.66;4963575;28;20524;-84
2023/01/06 05:08:49;;;;;;;11.40;6.63;;;;;;;13.39;52.90;93843.66;4951070;28;20394;-84
2023/01/06 05:11:17;;;;;;;13.13;6.60;;;;;;;13.38;52.78;93845.63;4969771;28;20083;-84
2023/01/06 05:13:42;;;;;;;10.27;6.15;;;;;;;13.38;53.05;93844.88;5000465;28;20120;-84
2023/01/06 05:16:14;;;;;;;10.27;6.78;;;;;;;13.39;52.91;93843.66;4967322;28;20042;-85
2023/01/06 05:18:43;;;;;;;11.82;6.50;;;;;;;13.40;52.61;93847.13;4983445;28;20035;-84
2023/01/06 05:21:08;;;;;;;11.70;6.90;;;;;;;13.35;52.80;93849.25;4968259;28;20106;-84
2023/01/06 05:23:35;;;;;;;11.52;5.93;;;;;;;13.36;52.71;93853.47;4955724;28;20494;-84
2023/01/06 05:26:01;;;;;;;13.98;6.80;;;;;;;13.36;53.14;93858.16;4968028;28;20513;-84
2023/01/06 05:28:28;;;;;;;8.95;6.18;;;;;;;13.34;52.81;93845.06;4974763;28;20126;-85
2023/01/06 05:31:00;;;;;;;7.05;5.70;;;;;;;13.38;53.12;93840.19;4951052;28;20076;-84
2023/01/06 05:33:26;;;;;;;10.02;6.15;;;;;;;13.40;53.12;93844.41;4950600;28;20360;-85
2023/01/06 05:36:02;;;;;;;13.93;7.32;;;;;;;13.38;52.96;93847.59;5000826;28;20047;-84
2023/01/06 05:38:28;;;;;;;8.43;6.03;;;;;;;13.38;53.20;93845.63;4982913;28;20122;-84
2023/01/06 05:40:55;;;;;;;9.63;6.07;;;;;;;13.35;53.09;93857.41;4951183;28;20050;-84
2023/01/06 05:43:21;;;;;;;11.50;5.82;;;;;;;13.36;52.94;93850.75;4982845;28;20050;-85
2023/01/06 05:45:46;;;;;;;10.40;5.93;;;;;;;13.38;52.98;93847.59;4951064;28;20050;-85
2023/01/06 05:48:11;;;;;;;11.93;6.18;;;;;;;13.37;52.63;93854.97;4967533;28;20057;-85
2023/01/06 05:50:37;;;;;;;8.05;6.10;;;;;;;13.35;52.77;93848.50;4970474;28;20034;-85
2023/01/06 05:53:02;;;;;;;10.80;6.10;;;;;;;13.41;52.96;93849.38;4950958;28;20441;-85
2023/01/06 05:55:28;;;;;;;11.77;6.45;;;;;;;13.42;52.51;93848.16;4983344;28;20039;-84
2023/01/06 05:57:53;;;;;;;10.05;6.45;;;;;;;13.42;52.93;93844.69;4953138;28;20046;-88
2023/01/06 06:00:19;;;;;;;11.88;6.30;;;;;;;13.39;52.60;93843.66;4971511;28;20054;-83
2023/01/06 06:02:44;;;;;;;8.02;6.45;;;;;;;13.38;53.03;93850.31;4987401;28;20085;-84
2023/01/06 06:05:10;;;;;;;9.85;6.50;;;;;;;13.38;52.57;93851.06;4970883;28;20042;-87
2023/01/06 06:07:35;;;;;;;11.88;6.45;;;;;;;13.39;52.66;93846.38;4987312;28;20034;-91
2023/01/06 06:10:01;;;;;;;12.45;6.60;;;;;;;13.36;53.05;93845.34;4954963;28;20042;-85
2023/01/06 06:12:26;;;;;;;9.43;6.22;;;;;;;13.38;53.04;93842.16;4954485;28;20043;-92
2023/01/06 06:14:52;;;;;;;9.98;5.75;;;;;;;13.39;52.84;93843.66;4955042;28;20089;-84
2023/01/06 06:17:17;;;;;;;11.88;6.45;;;;;;;13.37;52.97;93840.66;4986754;28;20047;-88
2023/01/06 06:19:42;;;;;;;11.55;6.07;;;;;;;13.41;52.91;93849.38;4972266;28;20039;-84
2023/01/06 06:22:08;;;;;;;9.30;5.85;;;;;;;13.40;52.64;93844.41;4937987;28;20386;-84
2023/01/06 06:24:33;;;;;;;10.70;5.85;;;;;;;13.40;53.02;93842.44;4987360;28;20063;-84
2023/01/06 06:26:59;;;;;;;9.43;6.20;;;;;;;13.37;52.89;93851.50;4987359;28;20094;-84
2023/01/06 06:29:24;;;;;;;9.57;6.00;;;;;;;13.37;52.68;93852.25;4953993;28;20038;-84
2023/01/06 06:31:50;;;;;;;10.35;5.68;;;;;;;13.33;52.85;93857.13;4970340;28;20034;-84
2023/01/06 06:34:15;;;;;;;9.70;6.00;;;;;;;13.34;53.10;93858.63;4969901;28;20059;-84
2023/01/06 06:36:41;;;;;;;11.07;6.38;;;;;;;13.34;52.79;93861.34;5003281;28;20039;-90
2023/01/06 06:39:06;;;;;;;9.55;5.97;;;;;;;13.33;53.15;93857.13;4970182;28;20034;-84
2023/01/06 06:41:32;;;;;;;9.07;6.22;;;;;;;13.33;52.68;93853.66;4954062;28;20054;-84
2023/01/06 06:43:57;;;;;;;9.65;6.10;;;;;;;13.36;53.14;93850.75;4954587;28;20038;-87
2023/01/06 06:46:23;;;;;;;13.18;6.40;;;;;;;13.35;52.79;93846.56;4969721;28;20039;-85
2023/01/06 06:48:49;;;;;;;7.68;5.43;;;;;;;13.38;52.71;93845.63;4970553;28;20432;-84
2023/01/06 06:51:18;;;;;;;9.32;6.00;;;;;;;13.41;53.02;93843.94;4958356;28;20038;-84
2023/01/06 06:53:44;;;;;;;8.55;6.00;;;;;;;13.40;52.82;93852.56;4934623;28;20055;-84
2023/01/06 06:56:09;;;;;;;8.10;5.78;;;;;;;13.39;53.11;93843.66;4983265;28;20098;-84
2023/01/06 06:58:35;;;;;;;14.05;7.00;;;;;;;13.40;52.77;93853.31;4934555;28;20061;-84
2023/01/06 07:01:07;;;;;;;9.68;6.07;;;;;;;13.37;53.22;93854.22;4982933;28;20599;-84
2023/01/06 07:03:33;;;;;;;11.10;5.97;;;;;;;13.37;53.01;93846.84;4950736;28;20043;-84
2023/01/06 07:05:58;;;;;;;11.77;5.80;;;;;;;13.41;52.58;93849.38;4935066;28;20082;-84
2023/01/06 07:08:24;;;;;;;10.02;5.63;;;;;;;13.37;52.71;93856.94;4950384;28;20043;-84
2023/01/06 07:10:50;;;;;;;10.85;6.20;;;;;;;13.34;52.77;93853.19;4966039;28;20490;-84
2023/01/06 07:13:16;;;;;;;9.55;6.47;;;;;;;13.38;52.90;93855.72;4982461;28;20411;-83
2023/01/06 07:15:41;;;;;;;8.85;5.70;;;;;;;13.36;53.24;93860.88;4966795;28;20047;-85
2023/01/06 07:18:07;;;;;;;8.27;5.35;;;;;;;13.38;52.69;93848.34;4966838;28;20039;-84
2023/01/06 07:20:33;;;;;;;9.70;6.13;;;;;;;13.34;52.81;93847.75;4951922;28;20060;-84
2023/01/06 07:22:58;;;;;;;9.13;5.85;;;;;;;13.33;52.87;93853.66;4981626;28;20054;-84
2023/01/06 07:25:24;;;;;;;9.52;5.75;;;;;;;13.36;53.06;93852.72;4982006;28;20640;-86
2023/01/06 07:27:54;;;;;;;11.95;6.25;;;;;;;13.35;53.04;93860.13;4963331;28;20156;-84
2023/01/06 07:30:19;;;;;;;10.13;6.07;;;;;;;13.37;52.72;93851.50;4978722;28;20494;-83
2023/01/06 07:32:45;;;;;;;8.55;5.88;;;;;;;13.38;52.81;93847.59;4950242;28;20041;-84
2023/01/06 07:35:10;;;;;;;9.25;5.85;;;;;;;13.37;52.55;93848.81;4949453;28;20039;-88
2023/01/06 07:37:35;;;;;;;8.23;5.97;;;;;;;13.35;53.00;93843.09;4966369;28;20039;-84
2023/01/06 07:40:01;;;;;;;8.63;5.72;;;;;;;13.36;52.92;93839.91;4950549;28;20409;-84
2023/01/06 07:42:26;;;;;;;8.90;5.53;;;;;;;13.38;52.96;93839.44;4960016;28;20101;-84
2023/01/06 07:44:52;;;;;;;11.45;5.80;;;;;;;13.36;52.71;93841.88;4934655;28;20130;-91
2023/01/06 07:47:17;;;;;;;7.57;5.20;;;;;;;13.36;52.66;93837.19;4979332;28;20418;-85
2023/01/06 07:49:43;;;;;;;10.38;6.03;;;;;;;13.35;53.07;93849.25;4980037;28;20052;-86
2023/01/06 07:52:08;;;;;;;6.85;5.00;;;;;;;13.35;52.77;93841.13;4982629;28;20085;-84
2023/01/06 07:54:33;;;;;;;8.55;5.63;;;;;;;13.37;52.64;93840.66;4958658;28;20058;-85
2023/01/06 07:57:02;;;;;;;11.40;6.07;;;;;;;13.37;52.84;93829.78;4931171;28;20042;-84
2023/01/06 07:59:27;;;;;;;10.77;5.78;;;;;;;13.36;52.92;93834.47;4928254;29;20079;-84
2023/01/06 08:01:53;;;;;;;8.18;5.53;;;;;;;13.35;52.80;93838.41;4932075;29;20110;-84
2023/01/06 08:04:19;;;;;;;8.93;6.03;;;;;;;13.35;52.76;93832.97;4962467;28;20044;-84
2023/01/06 08:06:44;;;;;;;8.45;5.05;;;;;;;13.35;53.02;93837.66;4927663;29;20048;-84
2023/01/06 08:09:10;;;;;;;7.38;5.70;;;;;;;13.40;52.82;93839.72;4946933;28;20044;-86
2023/01/06 08:11:35;;;;;;;9.40;6.50;;;;;;;13.38;52.63;93842.91;4946359;29;20074;-84
2023/01/06 08:14:00;;;;;;;9.50;6.10;;;;;;;13.34;53.16;93847.00;4946082;28;20036;-84
2023/01/06 08:16:26;;;;;;;11.55;6.32;;;;;;;13.36;52.91;93842.63;4943031;28;20407;-86
2023/01/06 08:18:51;;;;;;;9.48;5.90;;;;;;;13.35;52.99;93837.66;4912399;29;20399;-84
2023/01/06 08:21:17;;;;;;;10.13;5.85;;;;;;;13.38;52.82;93839.44;4929960;28;20639;-85
2023/01/06 08:23:42;;;;;;;8.07;5.63;;;;;;;13.34;52.93;93834.19;4930015;29;20043;-84
2023/01/06 08:26:09;;;;;;;11.38;5.40;;;;;;;13.37;52.85;93844.13;4942254;28;20159;-85
2023/01/06 08:28:35;;;;;;;8.73;5.90;;;;;;;13.40;53.11;93842.44;4962830;28;20027;-86
2023/01/06 08:31:00;;;;;;;10.45;5.95;;;;;;;13.37;52.76;93833.25;4914996;29;20469;-84
2023/01/06 08:33:26;;;;;;;9.10;5.53;;;;;;;13.36;53.00;93844.59;4930334;28;20043;-88
2023/01/06 08:36:00;;;;;;;7.40;5.85;;;;;;;13.36;52.71;93836.44;4914522;29;20054;-86
2023/01/06 08:38:26;;;;;;;10.45;5.78;;;;;;;13.37;52.79;93837.94;4962655;28;20039;-92
2023/01/06 08:40:52;;;;;;;8.77;5.82;;;;;;;13.40;52.84;93828.88;4962342;28;20413;-84
2023/01/06 08:43:18;;;;;;;9.70;5.75;;;;;;;13.38;52.82;93832.03;4961124;28;20040;-84
2023/01/06 08:45:43;;;;;;;7.38;5.25;;;;;;;13.37;52.69;93827.81;4945478;28;20044;-83
2023/01/06 08:48:09;;;;;;;10.00;5.65;;;;;;;13.37;52.78;93835.22;4929386;28;20028;-84
2023/01/06 08:50:34;;;;;;;11.13;6.03;;;;;;;13.36;53.07;93834.47;4968228;28;20047;-84
2023/01/06 08:52:59;;;;;;;7.40;5.55;;;;;;;13.39;52.72;93838.22;4964919;28;20064;-86
2023/01/06 08:55:25;;;;;;;8.20;5.63;;;;;;;13.38;52.68;93832.03;4952841;28;20047;-87
2023/01/06 08:57:50;;;;;;;8.80;6.07;;;;;;;13.35;52.74;93829.50;4942240;28;20427;-84
2023/01/06 09:00:16;;;;;;;10.52;6.03;;;;;;;13.34;52.64;93830.72;4925934;29;20132;-87
2023/01/06 09:02:41;;;;;;;8.50;5.40;;;;;;;13.36;52.56;93837.19;4958579;28;20040;-85
2023/01/06 09:05:07;;;;;;;11.25;6.10;;;;;;;13.41;52.63;93829.63;4928621;28;20054;-84
2023/01/06 09:07:32;;;;;;;9.45;5.88;;;;;;;13.41;52.81;93830.38;4910550;29;20037;-84
2023/01/06 09:09:58;;;;;;;8.63;5.45;;;;;;;13.38;52.83;93829.31;4928518;29;20059;-84
2023/01/06 09:12:23;;;;;;;7.28;5.10;;;;;;;13.38;53.01;93828.56;4928393;28;20051;-84
2023/01/06 09:14:49;;;;;;;7.35;5.60;;;;;;;13.37;52.85;93841.41;4945082;28;20050;-84
2023/01/06 09:17:14;;;;;;;7.18;4.90;;;;;;;13.37;52.72;93844.13;4941810;28;20051;-84
2023/01/06 09:19:42;;;;;;;9.68;5.72;;;;;;;13.40;53.13;93841.69;4936133;28;20132;-84
2023/01/06 09:22:08;;;;;;;9.65;5.75;;;;;;;13.38;52.84;93837.47;4960951;28;20039;-84
2023/01/06 09:24:33;;;;;;;8.20;5.60;;;;;;;13.37;52.72;93838.69;4912755;29;20034;-84
2023/01/06 09:26:59;;;;;;;9.30;5.80;;;;;;;13.39;53.14;93840.94;4929304;29;20048;-84
2023/01/06 09:29:24;;;;;;;7.97;5.60;;;;;;;13.41;53.08;93848.63;4928879;28;20042;-84
2023/01/06 09:31:50;;;;;;;8.27;5.45;;;;;;;13.44;52.88;93847.66;4929442;29;20039;-85
2023/01/06 09:34:15;;;;;;;8.25;5.60;;;;;;;13.45;52.78;93843.72;4928301;28;20043;-83
2023/01/06 09:36:41;;;;;;;9.30;5.57;;;;;;;13.40;52.86;93847.88;4928762;29;20043;-85
2023/01/06 09:39:06;;;;;;;7.18;5.55;;;;;;;13.44;52.78;93842.97;4979759;28;20035;-85
2023/01/06 09:41:39;;;;;;;8.55;5.65;;;;;;;13.42;52.80;93844.69;4930937;29;20058;-84
2023/01/06 09:44:18;;;;;;;8.45;5.97;;;;;;;13.41;52.68;93835.78;4944779;28;20051;-83
2023/01/06 09:46:45;;;;;;;8.18;5.80;;;;;;;13.42;52.96;93842.72;4957232;28;20135;-84
2023/01/06 09:49:23;;;;;;;8.25;5.70;;;;;;;13.43;52.96;93840.72;4941078;28;20084;-85
2023/01/06 09:51:49;;;;;;;7.97;5.43;;;;;;;13.41;52.92;93829.63;4947011;28;20044;-84
2023/01/06 09:54:25;;;;;;;9.15;5.50;;;;;;;13.43;52.93;93838.00;4937578;28;20054;-84
2023/01/06 09:56:53;;;;;;;7.65;5.65;;;;;;;13.43;52.54;93836.03;4947476;28;20110;-84
2023/01/06 09:59:22;;;;;;;6.95;4.90;;;;;;;13.45;52.78;93828.19;4932529;28;20035;-92
2023/01/06 10:01:48;;;;;;;9.20;5.20;;;;;;;13.43;52.66;93835.28;4945049;28;20557;-84
2023/01/06 10:04:17;;;;;;;8.98;5.95;;;;;;;13.44;52.44;93821.25;4960780;28;20076;-84
2023/01/06 10:07:12;;;;;;;8.98;5.53;;;;;;;13.49;52.45;93819.84;4960580;28;20131;-84
2023/01/06 10:10:00;;;;;;;7.80;5.53;;;;;;;13.48;52.78;93821.06;4959588;28;20063;-84
2023/01/06 10:12:41;;;;;;;7.57;5.25;;;;;;;13.51;52.61;93818.16;4962886;28;20406;-86
2023/01/06 10:15:25;;;;;;;9.60;5.82;;;;;;;13.52;52.62;93816.22;4963388;28;20048;-84
2023/01/06 10:17:57;;;;;;;8.90;5.78;;;;;;;13.49;52.74;93815.19;4964388;28;20525;-84
2023/01/06 10:20:50;;;;;;;7.15;5.18;;;;;;;13.48;53.06;93807.50;4969618;28;20059;-83
2023/01/06 10:23:41;;;;;;;8.80;5.75;;;;;;;13.49;52.66;93806.28;4947673;28;20142;-84
2023/01/06 10:26:29;;;;;;;9.90;5.30;;;;;;;13.48;52.93;93812.94;4947056;28;20047;-84
2023/01/06 10:28:58;;;;;;;6.90;4.70;;;;;;;13.48;52.81;93794.66;4980377;28;20043;-85
2023/01/06 10:31:25;;;;;;;8.60;5.15;;;;;;;13.50;52.74;93796.91;4963866;28;20039;-84
2023/01/06 10:33:52;;;;;;;9.70;5.80;;;;;;;13.47;52.78;93793.16;4981147;28;20118;-86
2023/01/06 10:36:22;;;;;;;7.97;5.57;;;;;;;13.47;52.92;93787.72;4947591;28;20074;-84
2023/01/06 10:38:49;;;;;;;7.10;5.45;;;;;;;13.51;52.70;93782.13;4980438;28;20417;-84
2023/01/06 10:41:21;;;;;;;8.18;5.30;;;;;;;13.49;52.96;93781.84;4963664;28;20444;-83
2023/01/06 10:43:47;;;;;;;10.30;5.63;;;;;;;13.49;52.85;93781.84;4964312;28;20035;-84
2023/01/06 10:46:13;;;;;;;7.50;5.60;;;;;;;13.53;52.75;93775.00;4950340;28;20039;-84
2023/01/06 10:48:39;;;;;;;8.00;5.50;;;;;;;13.49;52.74;93790.72;4966511;28;20056;-84
2023/01/06 10:51:27;;;;;;;8.15;5.32;;;;;;;13.50;52.75;93786.81;4967289;28;20050;-84
2023/01/06 10:53:55;;;;;;;8.63;5.88;;;;;;;13.50;52.81;93791.47;4970937;28;20047;-84
2023/01/06 10:56:21;;;;;;;11.80;5.85;;;;;;;13.48;53.14;93785.78;4952867;28;20054;-84
2023/01/06 10:58:49;;;;;;;8.68;5.50;;;;;;;13.48;52.74;93785.78;5002920;28;20042;-89
2023/01/06 11:01:21;;;;;;;8.45;5.47;;;;;;;13.49;52.74;93781.84;5001894;28;20581;-84
2023/01/06 11:03:47;;;;;;;8.70;5.82;;;;;;;13.49;52.57;93782.59;4954068;28;20031;-84
2023/01/06 11:06:26;;;;;;;10.38;5.50;;;;;;;13.49;52.81;93774.44;4985212;28;20045;-84
2023/01/06 11:08:51;;;;;;;12.55;5.75;;;;;;;13.48;52.93;93769.47;4954200;28;20457;-84
2023/01/06 11:11:17;;;;;;;7.20;5.13;;;;;;;13.47;52.69;93762.53;4969499;28;20583;-84
2023/01/06 11:13:48;;;;;;;8.27;5.80;;;;;;;13.47;52.89;93766.00;5002200;28;20064;-84
2023/01/06 11:16:26;;;;;;;7.35;5.30;;;;;;;13.48;52.93;93767.50;4949763;28;20050;-83
2023/01/06 11:19:04;;;;;;;7.63;5.60;;;;;;;13.49;52.53;93766.28;4953513;28;20035;-84
2023/01/06 11:21:44;;;;;;;13.60;6.05;;;;;;;13.51;52.87;93766.56;4953435;28;21055;-84
2023/01/06 11:24:17;;;;;;;8.68;5.82;;;;;;;13.50;53.04;93765.06;4985117;28;20130;-84
2023/01/06 11:26:48;;;;;;;7.60;5.30;;;;;;;13.48;52.75;93766.75;4984990;28;20035;-84
2023/01/06 11:29:22;;;;;;;7.18;5.28;;;;;;;13.48;53.10;93753.19;4968838;28;20031;-83
2023/01/06 11:31:48;;;;;;;7.00;5.38;;;;;;;13.47;52.66;93751.69;4985515;28;20118;-84
2023/01/06 11:34:22;;;;;;;10.07;5.68;;;;;;;13.48;52.99;93759.34;4969067;28;20054;-84
2023/01/06 11:36:48;;;;;;;7.65;5.15;;;;;;;13.50;53.02;93769.75;5001044;28;20113;-84
2023/01/06 11:39:17;;;;;;;7.25;4.85;;;;;;;13.49;53.08;93769.00;4969268;28;20045;-84
2023/01/06 11:41:44;;;;;;;8.50;5.28;;;;;;;13.51;52.82;93768.53;4968896;28;20067;-86